sensor_id;sensor_type;location;lat;lon;timestamp;temperature;humidity
3053;DHT22;1536;51.098;6.414;2022-07-10T00:00:07;17.40;98.70
3053;DHT22;1536;51.098;6.414;2022-07-10T00:02:34;17.40;98.90
3053;DHT22;1536;51.098;6.414;2022-07-10T00:05:03;17.40;98.90
3053;DHT22;1536;51.098;6.414;2022-07-10T00:07:30;17.40;98.90
3053;DHT22;1536;51.098;6.414;2022-07-10T00:09:57;17.30;98.80
3053;DHT22;1536;51.098;6.414;2022-07-10T00:12:23;17.30;98.80
3053;DHT22;1536;51.098;6.414;2022-07-10T00:14:50;17.30;98.80
3053;DHT22;1536;51.098;6.414;2022-07-10T00:17:17;17.30;99.10
3053;DHT22;1536;51.098;6.414;2022-07-10T00:19:44;17.30;98.70
3053;DHT22;1536;51.098;6.414;2022-07-10T00:22:12;17.20;98.70
3053;DHT22;1536;51.098;6.414;2022-07-10T00:24:39;17.20;98.80
3053;DHT22;1536;51.098;6.414;2022-07-10T00:27:05;17.20;98.90
3053;DHT22;1536;51.098;6.414;2022-07-10T00:29:32;17.20;99.10
3053;DHT22;1536;51.098;6.414;2022-07-10T00:31:59;17.20;99.10
3053;DHT22;1536;51.098;6.414;2022-07-10T00:34:25;17.10;99.00
3053;DHT22;1536;51.098;6.414;2022-07-10T00:36:52;17.10;99.00
3053;DHT22;1536;51.098;6.414;2022-07-10T00:39:20;17.10;99.10
3053;DHT22;1536;51.098;6.414;2022-07-10T00:41:47;17.10;99.30
3053;DHT22;1536;51.098;6.414;2022-07-10T00:44:14;17.10;99.50
3053;DHT22;1536;51.098;6.414;2022-07-10T00:46:40;17.10;99.50
3053;DHT22;1536;51.098;6.414;2022-07-10T00:49:07;17.10;99.60
3053;DHT22;1536;51.098;6.414;2022-07-10T00:51:34;17.10;99.80
3053;DHT22;1536;51.098;6.414;2022-07-10T00:54:02;17.10;99.80
3053;DHT22;1536;51.098;6.414;2022-07-10T00:56:31;17.10;99.90
3053;DHT22;1536;51.098;6.414;2022-07-10T00:58:58;17.10;99.90
3053;DHT22;1536;51.098;6.414;2022-07-10T01:01:25;17.10;99.90
3053;DHT22;1536;51.098;6.414;2022-07-10T01:03:52;17.20;99.90
3053;DHT22;1536;51.098;6.414;2022-07-10T01:06:19;17.10;99.90
3053;DHT22;1536;51.098;6.414;2022-07-10T01:08:45;17.20;99.90
3053;DHT22;1536;51.098;6.414;2022-07-10T01:11:13;17.20;99.90
3053;DHT22;1536;51.098;6.414;2022-07-10T01:13:42;17.20;99.90
3053;DHT22;1536;51.098;6.414;2022-07-10T01:16:10;17.20;99.90
3053;DHT22;1536;51.098;6.414;2022-07-10T01:18:37;17.20;99.90
3053;DHT22;1536;51.098;6.414;2022-07-10T01:21:05;17.20;99.90
3053;DHT22;1536;51.098;6.414;2022-07-10T01:23:32;17.20;99.90
3053;DHT22;1536;51.098;6.414;2022-07-10T01:25:59;17.20;99.90
3053;DHT22;1536;51.098;6.414;2022-07-10T01:28:29;17.30;99.90
3053;DHT22;1536;51.098;6.414;2022-07-10T01:30:56;17.20;99.90
3053;DHT22;1536;51.098;6.414;2022-07-10T01:33:23;17.30;99.90
3053;DHT22;1536;51.098;6.414;2022-07-10T01:35:50;17.30;99.90
3053;DHT22;1536;51.098;6.414;2022-07-10T01:38:18;17.30;99.90
3053;DHT22;1536;51.098;6.414;2022-07-10T01:40:45;17.30;99.90
3053;DHT22;1536;51.098;6.414;2022-07-10T01:43:11;17.30;99.90
3053;DHT22;1536;51.098;6.414;2022-07-10T01:45:38;17.30;99.90
3053;DHT22;1536;51.098;6.414;2022-07-10T01:48:06;17.30;99.90
3053;DHT22;1536;51.098;6.414;2022-07-10T01:50:33;17.30;99.90
3053;DHT22;1536;51.098;6.414;2022-07-10T01:53:00;17.30;99.90
3053;DHT22;1536;51.098;6.414;2022-07-10T01:55:28;17.30;99.90
3053;DHT22;1536;51.098;6.414;2022-07-10T01:57:54;17.30;99.90
3053;DHT22;1536;51.098;6.414;2022-07-10T02:00:21;17.30;99.90
3053;DHT22;1536;51.098;6.414;2022-07-10T02:02:49;17.30;99.90
3053;DHT22;1536;51.098;6.414;2022-07-10T02:05:30;17.30;99.90
3053;DHT22;1536;51.098;6.414;2022-07-10T02:07:57;17.30;99.90
3053;DHT22;1536;51.098;6.414;2022-07-10T02:10:25;17.30;99.90
3053;DHT22;1536;51.098;6.414;2022-07-10T02:12:53;17.30;99.90
3053;DHT22;1536;51.098;6.414;2022-07-10T02:15:19;17.30;99.90
3053;DHT22;1536;51.098;6.414;2022-07-10T02:17:46;17.30;99.90
3053;DHT22;1536;51.098;6.414;2022-07-10T02:20:13;17.30;99.90
3053;DHT22;1536;51.098;6.414;2022-07-10T02:22:40;17.30;99.90
3053;DHT22;1536;51.098;6.414;2022-07-10T02:25:07;17.30;99.90
3053;DHT22;1536;51.098;6.414;2022-07-10T02:27:34;17.20;99.90
3053;DHT22;1536;51.098;6.414;2022-07-10T02:30:03;17.20;99.90
3053;DHT22;1536;51.098;6.414;2022-07-10T02:32:30;17.20;99.90
3053;DHT22;1536;51.098;6.414;2022-07-10T02:34:56;17.20;99.90
3053;DHT22;1536;51.098;6.414;2022-07-10T02:37:23;17.10;99.90
3053;DHT22;1536;51.098;6.414;2022-07-10T02:39:50;17.10;99.90
3053;DHT22;1536;51.098;6.414;2022-07-10T02:42:17;17.10;99.90
3053;DHT22;1536;51.098;6.414;2022-07-10T02:44:44;17.10;99.90
3053;DHT22;1536;51.098;6.414;2022-07-10T02:47:12;17.10;99.90
3053;DHT22;1536;51.098;6.414;2022-07-10T02:49:39;17.00;99.90
3053;DHT22;1536;51.098;6.414;2022-07-10T02:52:06;17.00;99.90
3053;DHT22;1536;51.098;6.414;2022-07-10T02:54:33;17.00;99.90
3053;DHT22;1536;51.098;6.414;2022-07-10T02:56:59;17.00;99.90
3053;DHT22;1536;51.098;6.414;2022-07-10T02:59:26;17.00;99.90
3053;DHT22;1536;51.098;6.414;2022-07-10T03:01:53;17.00;99.90
3053;DHT22;1536;51.098;6.414;2022-07-10T03:04:21;16.90;99.90
3053;DHT22;1536;51.098;6.414;2022-07-10T03:06:48;16.90;99.90
3053;DHT22;1536;51.098;6.414;2022-07-10T03:09:14;16.90;99.90
3053;DHT22;1536;51.098;6.414;2022-07-10T03:11:41;16.90;99.90
3053;DHT22;1536;51.098;6.414;2022-07-10T03:14:08;16.90;99.90
3053;DHT22;1536;51.098;6.414;2022-07-10T03:16:34;16.90;99.90
3053;DHT22;1536;51.098;6.414;2022-07-10T03:19:01;16.90;99.90
3053;DHT22;1536;51.098;6.414;2022-07-10T03:21:29;16.80;99.90
3053;DHT22;1536;51.098;6.414;2022-07-10T03:23:56;16.80;99.90
3053;DHT22;1536;51.098;6.414;2022-07-10T03:26:23;16.80;99.90
3053;DHT22;1536;51.098;6.414;2022-07-10T03:28:50;16.80;99.90
3053;DHT22;1536;51.098;6.414;2022-07-10T03:31:16;16.80;99.90
3053;DHT22;1536;51.098;6.414;2022-07-10T03:33:43;16.80;99.90
3053;DHT22;1536;51.098;6.414;2022-07-10T03:36:10;16.70;99.90
3053;DHT22;1536;51.098;6.414;2022-07-10T03:38:40;16.70;99.90
3053;DHT22;1536;51.098;6.414;2022-07-10T03:41:06;16.70;99.90
3053;DHT22;1536;51.098;6.414;2022-07-10T03:43:33;16.70;99.90
3053;DHT22;1536;51.098;6.414;2022-07-10T03:46:00;16.70;99.90
3053;DHT22;1536;51.098;6.414;2022-07-10T03:48:27;16.70;99.90
3053;DHT22;1536;51.098;6.414;2022-07-10T03:50:54;16.70;99.90
3053;DHT22;1536;51.098;6.414;2022-07-10T03:53:20;16.60;99.90
3053;DHT22;1536;51.098;6.414;2022-07-10T03:56:04;16.60;99.90
3053;DHT22;1536;51.098;6.414;2022-07-10T03:58:31;16.60;99.90
3053;DHT22;1536;51.098;6.414;2022-07-10T04:00:56;16.60;99.90
3053;DHT22;1536;51.098;6.414;2022-07-10T04:03:23;16.60;99.90
3053;DHT22;1536;51.098;6.414;2022-07-10T04:05:50;16.60;99.90
3053;DHT22;1536;51.098;6.414;2022-07-10T04:08:17;16.60;99.90
3053;DHT22;1536;51.098;6.414;2022-07-10T04:10:43;16.60;99.90
3053;DHT22;1536;51.098;6.414;2022-07-10T04:13:12;16.60;99.90
3053;DHT22;1536;51.098;6.414;2022-07-10T04:15:38;16.60;99.90
3053;DHT22;1536;51.098;6.414;2022-07-10T04:18:05;16.60;99.90
3053;DHT22;1536;51.098;6.414;2022-07-10T04:20:32;16.70;99.90
3053;DHT22;1536;51.098;6.414;2022-07-10T04:22:58;16.70;99.90
3053;DHT22;1536;51.098;6.414;2022-07-10T04:25:25;16.70;99.90
3053;DHT22;1536;51.098;6.414;2022-07-10T04:27:52;16.70;99.90
3053;DHT22;1536;51.098;6.414;2022-07-10T04:30:20;16.60;99.90
3053;DHT22;1536;51.098;6.414;2022-07-10T04:32:47;16.60;99.90
3053;DHT22;1536;51.098;6.414;2022-07-10T04:35:13;16.60;99.90
3053;DHT22;1536;51.098;6.414;2022-07-10T04:37:40;16.60;99.90
3053;DHT22;1536;51.098;6.414;2022-07-10T04:40:08;16.70;99.90
3053;DHT22;1536;51.098;6.414;2022-07-10T04:42:36;16.70;99.90
3053;DHT22;1536;51.098;6.414;2022-07-10T04:45:03;16.70;99.90
3053;DHT22;1536;51.098;6.414;2022-07-10T04:47:31;16.80;99.90
3053;DHT22;1536;51.098;6.414;2022-07-10T04:49:58;16.70;99.90
3053;DHT22;1536;51.098;6.414;2022-07-10T04:52:25;16.80;99.90
3053;DHT22;1536;51.098;6.414;2022-07-10T04:54:52;16.80;99.90
3053;DHT22;1536;51.098;6.414;2022-07-10T04:57:19;16.90;99.90
3053;DHT22;1536;51.098;6.414;2022-07-10T04:59:45;17.00;99.90
3053;DHT22;1536;51.098;6.414;2022-07-10T05:02:12;17.00;99.90
3053;DHT22;1536;51.098;6.414;2022-07-10T05:04:40;17.10;99.90
3053;DHT22;1536;51.098;6.414;2022-07-10T05:07:07;17.10;99.90
3053;DHT22;1536;51.098;6.414;2022-07-10T05:09:34;17.10;99.90
3053;DHT22;1536;51.098;6.414;2022-07-10T05:12:00;17.20;99.90
3053;DHT22;1536;51.098;6.414;2022-07-10T05:14:27;17.20;99.90
3053;DHT22;1536;51.098;6.414;2022-07-10T05:16:54;17.30;99.90
3053;DHT22;1536;51.098;6.414;2022-07-10T05:19:21;17.30;99.90
3053;DHT22;1536;51.098;6.414;2022-07-10T05:21:49;17.30;99.90
3053;DHT22;1536;51.098;6.414;2022-07-10T05:24:15;17.40;99.90
3053;DHT22;1536;51.098;6.414;2022-07-10T05:26:42;17.30;99.90
3053;DHT22;1536;51.098;6.414;2022-07-10T05:29:09;17.40;99.90
3053;DHT22;1536;51.098;6.414;2022-07-10T05:31:36;17.40;99.90
3053;DHT22;1536;51.098;6.414;2022-07-10T05:34:02;17.40;99.90
3053;DHT22;1536;51.098;6.414;2022-07-10T05:36:29;17.40;99.90
3053;DHT22;1536;51.098;6.414;2022-07-10T05:38:58;17.40;99.90
3053;DHT22;1536;51.098;6.414;2022-07-10T05:41:24;17.40;99.90
3053;DHT22;1536;51.098;6.414;2022-07-10T05:43:51;17.40;99.90
3053;DHT22;1536;51.098;6.414;2022-07-10T05:46:18;17.40;99.90
3053;DHT22;1536;51.098;6.414;2022-07-10T05:48:45;17.40;99.90
3053;DHT22;1536;51.098;6.414;2022-07-10T05:51:11;17.40;99.90
3053;DHT22;1536;51.098;6.414;2022-07-10T05:53:38;17.40;99.90
3053;DHT22;1536;51.098;6.414;2022-07-10T05:56:06;17.40;99.90
3053;DHT22;1536;51.098;6.414;2022-07-10T05:58:33;17.50;99.90
3053;DHT22;1536;51.098;6.414;2022-07-10T06:01:00;17.50;99.90
3053;DHT22;1536;51.098;6.414;2022-07-10T06:03:27;17.60;99.90
3053;DHT22;1536;51.098;6.414;2022-07-10T06:05:54;17.60;99.90
3053;DHT22;1536;51.098;6.414;2022-07-10T06:08:21;17.60;99.90
3053;DHT22;1536;51.098;6.414;2022-07-10T06:10:47;17.60;99.90
3053;DHT22;1536;51.098;6.414;2022-07-10T06:13:15;17.60;99.90
3053;DHT22;1536;51.098;6.414;2022-07-10T06:15:42;17.70;99.90
3053;DHT22;1536;51.098;6.414;2022-07-10T06:18:09;17.70;99.90
3053;DHT22;1536;51.098;6.414;2022-07-10T06:20:36;17.70;99.90
3053;DHT22;1536;51.098;6.414;2022-07-10T06:23:02;17.80;99.90
3053;DHT22;1536;51.098;6.414;2022-07-10T06:25:29;17.80;99.90
3053;DHT22;1536;51.098;6.414;2022-07-10T06:27:56;17.90;99.90
3053;DHT22;1536;51.098;6.414;2022-07-10T06:30:24;17.90;99.90
3053;DHT22;1536;51.098;6.414;2022-07-10T06:32:51;17.90;99.90
3053;DHT22;1536;51.098;6.414;2022-07-10T06:35:18;17.90;99.90
3053;DHT22;1536;51.098;6.414;2022-07-10T06:37:44;18.00;99.90
3053;DHT22;1536;51.098;6.414;2022-07-10T06:40:13;18.00;99.90
3053;DHT22;1536;51.098;6.414;2022-07-10T06:42:40;18.00;99.90
3053;DHT22;1536;51.098;6.414;2022-07-10T06:45:08;18.00;99.90
3053;DHT22;1536;51.098;6.414;2022-07-10T06:47:36;18.00;99.90
3053;DHT22;1536;51.098;6.414;2022-07-10T06:50:22;18.00;99.90
3053;DHT22;1536;51.098;6.414;2022-07-10T06:52:49;18.00;99.90
3053;DHT22;1536;51.098;6.414;2022-07-10T06:55:18;18.10;99.90
3053;DHT22;1536;51.098;6.414;2022-07-10T06:57:45;18.10;99.90
3053;DHT22;1536;51.098;6.414;2022-07-10T07:00:12;18.10;99.90
3053;DHT22;1536;51.098;6.414;2022-07-10T07:02:40;18.10;99.90
3053;DHT22;1536;51.098;6.414;2022-07-10T07:05:08;18.10;99.90
3053;DHT22;1536;51.098;6.414;2022-07-10T07:07:35;18.10;99.90
3053;DHT22;1536;51.098;6.414;2022-07-10T07:10:03;18.10;99.90
3053;DHT22;1536;51.098;6.414;2022-07-10T07:12:30;18.10;99.90
3053;DHT22;1536;51.098;6.414;2022-07-10T07:14:57;18.20;99.90
3053;DHT22;1536;51.098;6.414;2022-07-10T07:17:24;18.20;99.90
3053;DHT22;1536;51.098;6.414;2022-07-10T07:20:00;18.20;99.90
3053;DHT22;1536;51.098;6.414;2022-07-10T07:22:45;18.20;99.90
3053;DHT22;1536;51.098;6.414;2022-07-10T07:25:29;18.30;99.90
3053;DHT22;1536;51.098;6.414;2022-07-10T07:27:56;18.30;99.90
3053;DHT22;1536;51.098;6.414;2022-07-10T07:30:22;18.30;99.90
3053;DHT22;1536;51.098;6.414;2022-07-10T07:32:49;18.30;99.90
3053;DHT22;1536;51.098;6.414;2022-07-10T07:35:18;18.30;99.90
3053;DHT22;1536;51.098;6.414;2022-07-10T07:37:46;18.40;99.90
3053;DHT22;1536;51.098;6.414;2022-07-10T07:40:14;18.40;99.90
3053;DHT22;1536;51.098;6.414;2022-07-10T07:42:42;18.50;99.90
3053;DHT22;1536;51.098;6.414;2022-07-10T07:45:09;18.50;99.90
3053;DHT22;1536;51.098;6.414;2022-07-10T07:47:43;18.50;99.90
3053;DHT22;1536;51.098;6.414;2022-07-10T07:50:15;18.50;99.90
3053;DHT22;1536;51.098;6.414;2022-07-10T07:52:44;18.60;99.90
3053;DHT22;1536;51.098;6.414;2022-07-10T07:55:12;18.60;99.90
3053;DHT22;1536;51.098;6.414;2022-07-10T07:57:40;18.60;99.90
3053;DHT22;1536;51.098;6.414;2022-07-10T08:00:09;18.70;99.90
3053;DHT22;1536;51.098;6.414;2022-07-10T08:02:36;18.80;99.90
3053;DHT22;1536;51.098;6.414;2022-07-10T08:05:04;18.90;99.90
3053;DHT22;1536;51.098;6.414;2022-07-10T08:07:36;18.90;99.90
3053;DHT22;1536;51.098;6.414;2022-07-10T08:10:06;19.00;99.90
3053;DHT22;1536;51.098;6.414;2022-07-10T08:12:34;19.10;99.90
3053;DHT22;1536;51.098;6.414;2022-07-10T08:15:01;19.10;99.90
3053;DHT22;1536;51.098;6.414;2022-07-10T08:17:28;19.20;99.90
3053;DHT22;1536;51.098;6.414;2022-07-10T08:19:55;19.20;99.90
3053;DHT22;1536;51.098;6.414;2022-07-10T08:22:22;19.30;99.90
3053;DHT22;1536;51.098;6.414;2022-07-10T08:24:48;19.20;99.90
3053;DHT22;1536;51.098;6.414;2022-07-10T08:27:17;19.20;99.90
3053;DHT22;1536;51.098;6.414;2022-07-10T08:29:44;19.20;99.90
3053;DHT22;1536;51.098;6.414;2022-07-10T08:32:10;19.30;99.90
3053;DHT22;1536;51.098;6.414;2022-07-10T08:34:37;19.30;99.90
3053;DHT22;1536;51.098;6.414;2022-07-10T08:39:46;19.50;99.90
3053;DHT22;1536;51.098;6.414;2022-07-10T08:42:16;19.60;99.90
3053;DHT22;1536;51.098;6.414;2022-07-10T08:44:44;19.60;99.90
3053;DHT22;1536;51.098;6.414;2022-07-10T08:47:11;19.60;99.90
3053;DHT22;1536;51.098;6.414;2022-07-10T08:49:38;19.60;99.90
3053;DHT22;1536;51.098;6.414;2022-07-10T08:52:15;19.50;99.90
3053;DHT22;1536;51.098;6.414;2022-07-10T08:54:45;19.50;99.90
3053;DHT22;1536;51.098;6.414;2022-07-10T08:57:12;19.50;99.90
3053;DHT22;1536;51.098;6.414;2022-07-10T08:59:40;19.50;99.90
3053;DHT22;1536;51.098;6.414;2022-07-10T09:02:07;19.40;99.90
3053;DHT22;1536;51.098;6.414;2022-07-10T09:04:34;19.40;99.90
3053;DHT22;1536;51.098;6.414;2022-07-10T09:07:01;19.40;99.90
3053;DHT22;1536;51.098;6.414;2022-07-10T09:09:29;19.30;99.90
3053;DHT22;1536;51.098;6.414;2022-07-10T09:11:57;19.30;99.90
3053;DHT22;1536;51.098;6.414;2022-07-10T09:14:26;19.30;99.90
3053;DHT22;1536;51.098;6.414;2022-07-10T09:16:55;19.30;99.90
3053;DHT22;1536;51.098;6.414;2022-07-10T09:19:23;19.30;99.90
3053;DHT22;1536;51.098;6.414;2022-07-10T09:21:51;19.30;99.90
3053;DHT22;1536;51.098;6.414;2022-07-10T09:24:19;19.30;99.90
3053;DHT22;1536;51.098;6.414;2022-07-10T09:26:58;19.30;99.90
3053;DHT22;1536;51.098;6.414;2022-07-10T09:29:26;19.30;99.90
3053;DHT22;1536;51.098;6.414;2022-07-10T09:31:55;19.30;99.90
3053;DHT22;1536;51.098;6.414;2022-07-10T09:34:36;19.30;99.90
3053;DHT22;1536;51.098;6.414;2022-07-10T09:37:20;19.30;99.90
3053;DHT22;1536;51.098;6.414;2022-07-10T09:39:56;19.30;99.90
3053;DHT22;1536;51.098;6.414;2022-07-10T09:42:28;19.30;99.90
3053;DHT22;1536;51.098;6.414;2022-07-10T09:45:18;19.30;99.90
3053;DHT22;1536;51.098;6.414;2022-07-10T09:47:53;19.30;99.90
3053;DHT22;1536;51.098;6.414;2022-07-10T09:50:23;19.30;99.90
3053;DHT22;1536;51.098;6.414;2022-07-10T09:52:52;19.20;99.90
3053;DHT22;1536;51.098;6.414;2022-07-10T09:55:21;19.20;99.90
3053;DHT22;1536;51.098;6.414;2022-07-10T09:58:03;19.20;99.90
3053;DHT22;1536;51.098;6.414;2022-07-10T10:00:32;19.20;99.90
3053;DHT22;1536;51.098;6.414;2022-07-10T10:03:01;19.20;99.90
3053;DHT22;1536;51.098;6.414;2022-07-10T10:05:35;19.20;99.90
3053;DHT22;1536;51.098;6.414;2022-07-10T10:08:09;19.20;99.90
3053;DHT22;1536;51.098;6.414;2022-07-10T10:10:40;19.30;99.90
3053;DHT22;1536;51.098;6.414;2022-07-10T10:13:11;19.30;99.90
3053;DHT22;1536;51.098;6.414;2022-07-10T10:15:38;19.40;99.90
3053;DHT22;1536;51.098;6.414;2022-07-10T10:18:06;19.50;99.90
3053;DHT22;1536;51.098;6.414;2022-07-10T10:20:34;19.60;99.90
3053;DHT22;1536;51.098;6.414;2022-07-10T10:23:09;19.70;99.90
3053;DHT22;1536;51.098;6.414;2022-07-10T10:25:37;19.80;99.90
3053;DHT22;1536;51.098;6.414;2022-07-10T10:28:06;19.90;99.90
3053;DHT22;1536;51.098;6.414;2022-07-10T10:30:36;20.00;99.90
3053;DHT22;1536;51.098;6.414;2022-07-10T10:33:06;20.10;99.90
3053;DHT22;1536;51.098;6.414;2022-07-10T10:35:53;20.30;99.90
3053;DHT22;1536;51.098;6.414;2022-07-10T10:38:19;20.40;99.90
3053;DHT22;1536;51.098;6.414;2022-07-10T10:40:46;20.50;99.90
3053;DHT22;1536;51.098;6.414;2022-07-10T10:43:17;20.60;99.90
3053;DHT22;1536;51.098;6.414;2022-07-10T10:45:45;20.60;99.90
3053;DHT22;1536;51.098;6.414;2022-07-10T10:48:14;20.60;99.90
3053;DHT22;1536;51.098;6.414;2022-07-10T10:50:42;20.70;99.90
3053;DHT22;1536;51.098;6.414;2022-07-10T10:53:16;20.70;99.90
3053;DHT22;1536;51.098;6.414;2022-07-10T10:56:21;20.70;99.90
3053;DHT22;1536;51.098;6.414;2022-07-10T10:58:48;20.80;99.90
3053;DHT22;1536;51.098;6.414;2022-07-10T11:01:24;20.80;99.90
3053;DHT22;1536;51.098;6.414;2022-07-10T11:04:14;20.90;99.90
3053;DHT22;1536;51.098;6.414;2022-07-10T11:06:43;20.90;99.90
3053;DHT22;1536;51.098;6.414;2022-07-10T11:09:22;20.90;99.90
3053;DHT22;1536;51.098;6.414;2022-07-10T11:11:58;20.90;99.90
3053;DHT22;1536;51.098;6.414;2022-07-10T11:14:26;21.10;99.90
3053;DHT22;1536;51.098;6.414;2022-07-10T11:16:54;21.10;99.90
3053;DHT22;1536;51.098;6.414;2022-07-10T11:19:24;21.20;99.90
3053;DHT22;1536;51.098;6.414;2022-07-10T11:21:58;21.20;99.90
3053;DHT22;1536;51.098;6.414;2022-07-10T11:24:42;21.30;99.90
3053;DHT22;1536;51.098;6.414;2022-07-10T11:27:24;21.40;99.90
3053;DHT22;1536;51.098;6.414;2022-07-10T11:29:57;21.30;99.90
3053;DHT22;1536;51.098;6.414;2022-07-10T11:32:24;21.30;99.90
3053;DHT22;1536;51.098;6.414;2022-07-10T11:34:52;21.30;99.90
3053;DHT22;1536;51.098;6.414;2022-07-10T11:37:19;21.30;99.90
3053;DHT22;1536;51.098;6.414;2022-07-10T11:39:46;21.40;99.90
3053;DHT22;1536;51.098;6.414;2022-07-10T11:42:13;21.40;99.90
3053;DHT22;1536;51.098;6.414;2022-07-10T11:44:40;21.50;99.90
3053;DHT22;1536;51.098;6.414;2022-07-10T11:47:06;21.60;99.90
3053;DHT22;1536;51.098;6.414;2022-07-10T11:49:33;21.70;99.90
3053;DHT22;1536;51.098;6.414;2022-07-10T11:52:03;21.70;99.90
3053;DHT22;1536;51.098;6.414;2022-07-10T11:54:30;21.80;99.90
3053;DHT22;1536;51.098;6.414;2022-07-10T11:57:04;21.80;99.90
3053;DHT22;1536;51.098;6.414;2022-07-10T11:59:32;21.80;99.90
3053;DHT22;1536;51.098;6.414;2022-07-10T12:01:58;21.70;99.90
3053;DHT22;1536;51.098;6.414;2022-07-10T12:04:28;21.70;99.90
3053;DHT22;1536;51.098;6.414;2022-07-10T12:06:55;21.60;99.90
3053;DHT22;1536;51.098;6.414;2022-07-10T12:09:23;21.60;99.90
3053;DHT22;1536;51.098;6.414;2022-07-10T12:11:59;21.60;99.90
3053;DHT22;1536;51.098;6.414;2022-07-10T12:14:26;21.60;99.90
3053;DHT22;1536;51.098;6.414;2022-07-10T12:16:54;21.60;99.90
3053;DHT22;1536;51.098;6.414;2022-07-10T12:19:23;21.60;99.90
3053;DHT22;1536;51.098;6.414;2022-07-10T12:21:53;21.50;99.90
3053;DHT22;1536;51.098;6.414;2022-07-10T12:24:20;21.50;99.90
3053;DHT22;1536;51.098;6.414;2022-07-10T12:26:51;21.40;99.90
3053;DHT22;1536;51.098;6.414;2022-07-10T12:29:23;21.40;99.90
3053;DHT22;1536;51.098;6.414;2022-07-10T12:31:52;21.30;99.90
3053;DHT22;1536;51.098;6.414;2022-07-10T12:34:32;21.30;99.90
3053;DHT22;1536;51.098;6.414;2022-07-10T12:37:07;21.20;99.90
3053;DHT22;1536;51.098;6.414;2022-07-10T12:39:36;21.30;99.90
3053;DHT22;1536;51.098;6.414;2022-07-10T12:42:07;21.30;99.90
3053;DHT22;1536;51.098;6.414;2022-07-10T12:44:38;21.30;99.90
3053;DHT22;1536;51.098;6.414;2022-07-10T12:47:07;21.40;99.90
3053;DHT22;1536;51.098;6.414;2022-07-10T12:49:49;21.50;99.90
3053;DHT22;1536;51.098;6.414;2022-07-10T12:52:26;21.60;99.90
3053;DHT22;1536;51.098;6.414;2022-07-10T12:55:10;21.70;99.90
3053;DHT22;1536;51.098;6.414;2022-07-10T12:57:50;21.90;99.90
3053;DHT22;1536;51.098;6.414;2022-07-10T13:00:19;22.00;99.90
3053;DHT22;1536;51.098;6.414;2022-07-10T13:02:46;22.00;99.90
3053;DHT22;1536;51.098;6.414;2022-07-10T13:05:29;22.00;99.90
3053;DHT22;1536;51.098;6.414;2022-07-10T13:08:10;22.10;99.90
3053;DHT22;1536;51.098;6.414;2022-07-10T13:10:38;22.00;99.90
3053;DHT22;1536;51.098;6.414;2022-07-10T13:13:07;21.90;99.90
3053;DHT22;1536;51.098;6.414;2022-07-10T13:15:34;21.90;99.90
3053;DHT22;1536;51.098;6.414;2022-07-10T13:18:05;21.80;99.90
3053;DHT22;1536;51.098;6.414;2022-07-10T13:20:32;21.70;99.90
3053;DHT22;1536;51.098;6.414;2022-07-10T13:22:59;21.70;99.90
3053;DHT22;1536;51.098;6.414;2022-07-10T13:25:26;21.60;99.90
3053;DHT22;1536;51.098;6.414;2022-07-10T13:27:53;21.60;99.90
3053;DHT22;1536;51.098;6.414;2022-07-10T13:30:21;21.80;99.90
3053;DHT22;1536;51.098;6.414;2022-07-10T13:32:48;21.80;99.90
3053;DHT22;1536;51.098;6.414;2022-07-10T13:35:15;21.90;99.90
3053;DHT22;1536;51.098;6.414;2022-07-10T13:37:42;22.00;99.90
3053;DHT22;1536;51.098;6.414;2022-07-10T13:40:09;22.00;99.90
3053;DHT22;1536;51.098;6.414;2022-07-10T13:42:36;22.10;99.90
3053;DHT22;1536;51.098;6.414;2022-07-10T13:45:04;22.10;99.90
3053;DHT22;1536;51.098;6.414;2022-07-10T13:47:32;22.10;99.90
3053;DHT22;1536;51.098;6.414;2022-07-10T13:49:59;22.10;99.90
3053;DHT22;1536;51.098;6.414;2022-07-10T13:52:26;22.10;99.90
3053;DHT22;1536;51.098;6.414;2022-07-10T13:54:53;22.10;99.90
3053;DHT22;1536;51.098;6.414;2022-07-10T13:57:19;22.10;99.90
3053;DHT22;1536;51.098;6.414;2022-07-10T13:59:46;22.10;99.90
3053;DHT22;1536;51.098;6.414;2022-07-10T14:02:13;22.10;99.90
3053;DHT22;1536;51.098;6.414;2022-07-10T14:04:41;22.20;99.90
3053;DHT22;1536;51.098;6.414;2022-07-10T14:07:08;22.20;99.90
3053;DHT22;1536;51.098;6.414;2022-07-10T14:09:35;22.30;99.90
3053;DHT22;1536;51.098;6.414;2022-07-10T14:12:02;22.30;99.90
3053;DHT22;1536;51.098;6.414;2022-07-10T14:14:28;22.30;99.90
3053;DHT22;1536;51.098;6.414;2022-07-10T14:16:55;22.40;99.90
3053;DHT22;1536;51.098;6.414;2022-07-10T14:19:22;22.50;99.90
3053;DHT22;1536;51.098;6.414;2022-07-10T14:21:50;22.60;99.90
3053;DHT22;1536;51.098;6.414;2022-07-10T14:24:17;22.70;99.90
3053;DHT22;1536;51.098;6.414;2022-07-10T14:26:44;22.70;99.90
3053;DHT22;1536;51.098;6.414;2022-07-10T14:29:12;22.70;99.90
3053;DHT22;1536;51.098;6.414;2022-07-10T14:31:39;22.60;99.90
3053;DHT22;1536;51.098;6.414;2022-07-10T14:34:05;22.60;99.90
3053;DHT22;1536;51.098;6.414;2022-07-10T14:36:32;22.50;99.90
3053;DHT22;1536;51.098;6.414;2022-07-10T14:39:00;22.50;99.90
3053;DHT22;1536;51.098;6.414;2022-07-10T14:41:27;22.40;99.90
3053;DHT22;1536;51.098;6.414;2022-07-10T14:43:54;22.40;99.90
3053;DHT22;1536;51.098;6.414;2022-07-10T14:46:21;22.40;99.90
3053;DHT22;1536;51.098;6.414;2022-07-10T14:48:48;22.40;99.90
3053;DHT22;1536;51.098;6.414;2022-07-10T14:51:15;22.50;99.90
3053;DHT22;1536;51.098;6.414;2022-07-10T14:53:42;22.50;99.90
3053;DHT22;1536;51.098;6.414;2022-07-10T14:56:12;22.50;99.90
3053;DHT22;1536;51.098;6.414;2022-07-10T14:58:41;22.50;99.90
3053;DHT22;1536;51.098;6.414;2022-07-10T15:01:08;22.50;99.90
3053;DHT22;1536;51.098;6.414;2022-07-10T15:03:35;22.50;99.90
3053;DHT22;1536;51.098;6.414;2022-07-10T15:06:02;22.50;99.90
3053;DHT22;1536;51.098;6.414;2022-07-10T15:08:28;22.50;99.90
3053;DHT22;1536;51.098;6.414;2022-07-10T15:10:56;22.60;99.90
3053;DHT22;1536;51.098;6.414;2022-07-10T15:13:26;22.70;99.90
3053;DHT22;1536;51.098;6.414;2022-07-10T15:15:53;22.70;99.90
3053;DHT22;1536;51.098;6.414;2022-07-10T15:18:20;22.80;99.90
3053;DHT22;1536;51.098;6.414;2022-07-10T15:20:47;22.80;99.90
3053;DHT22;1536;51.098;6.414;2022-07-10T15:23:14;22.80;99.90
3053;DHT22;1536;51.098;6.414;2022-07-10T15:25:41;22.80;99.90
3053;DHT22;1536;51.098;6.414;2022-07-10T15:28:09;22.70;99.90
3053;DHT22;1536;51.098;6.414;2022-07-10T15:30:38;22.60;99.90
3053;DHT22;1536;51.098;6.414;2022-07-10T15:33:05;22.60;99.90
3053;DHT22;1536;51.098;6.414;2022-07-10T15:35:33;22.50;99.90
3053;DHT22;1536;51.098;6.414;2022-07-10T15:38:00;22.50;99.90
3053;DHT22;1536;51.098;6.414;2022-07-10T15:40:26;22.50;99.90
3053;DHT22;1536;51.098;6.414;2022-07-10T15:42:53;22.50;99.90
3053;DHT22;1536;51.098;6.414;2022-07-10T15:45:22;22.50;99.90
3053;DHT22;1536;51.098;6.414;2022-07-10T15:47:50;22.50;99.90
3053;DHT22;1536;51.098;6.414;2022-07-10T15:50:17;22.40;99.90
3053;DHT22;1536;51.098;6.414;2022-07-10T15:52:44;22.40;99.90
3053;DHT22;1536;51.098;6.414;2022-07-10T15:55:11;22.40;99.90
3053;DHT22;1536;51.098;6.414;2022-07-10T15:57:38;22.30;99.90
3053;DHT22;1536;51.098;6.414;2022-07-10T16:00:06;22.30;99.90
3053;DHT22;1536;51.098;6.414;2022-07-10T16:02:34;22.30;99.90
3053;DHT22;1536;51.098;6.414;2022-07-10T16:05:03;22.20;99.90
3053;DHT22;1536;51.098;6.414;2022-07-10T16:07:30;22.20;99.90
3053;DHT22;1536;51.098;6.414;2022-07-10T16:09:57;22.20;99.90
3053;DHT22;1536;51.098;6.414;2022-07-10T16:12:24;22.20;99.90